This is the latest recevied weather packets stored in our database for station/object M0XDC. If no packets are shown the sender has not sent any weather packets the latest 10 day(s).
| Time | Temp. | Humidity | Pressure | Rain* | Wind** | Luminosity | Snow |
|---|---|---|---|---|---|---|---|
| 1777195805 | 13.33° C | 65% | 1023.8 hPa | 0 mm | - | - | - |
| 1777192205 | 12.22° C | 70% | 1023.7 hPa | 0 mm | - | - | - |
| 1777190405 | 11.11° C | 76% | 1023.8 hPa | 0 mm | - | - | - |
| 1777186803 | 9.44° C | 82% | 1023.6 hPa | 0 mm | - | - | - |
| 1777185906 | 9.44° C | 83% | 1023.7 hPa | 0 mm | - | - | - |
| 1777185003 | 8.89° C | 84% | 1023.7 hPa | 0 mm | - | - | - |
| 1777183205 | 7.78° C | 88% | 1023.4 hPa | 0 mm | - | - | - |
| 1777178705 | 7.22° C | 93% | 1022.8 hPa | 0 mm | - | - | - |
| 1777178257 | 7.22° C | 93% | 1022.7 hPa | 0 mm | - | - | - |
| 1777176457 | 7.22° C | 93% | 1022.5 hPa | 0 mm | - | - | - |
| 1777174657 | 7.22° C | 93% | 1022.3 hPa | 0 mm | - | - | - |
| 1777172857 | 6.67° C | 93% | 1022.3 hPa | 0 mm | - | - | - |
| 1777171057 | 6.67° C | 92% | 1022.1 hPa | 0 mm | - | - | - |
| 1777169257 | 6.67° C | 90% | 1022.1 hPa | 0 mm | - | - | - |
| 1777167457 | 6.11° C | 88% | 1022.2 hPa | 0 mm | - | - | - |
| 1777165657 | 6.67° C | 85% | 1021.7 hPa | 0 mm | - | - | - |
| 1777163857 | 6.67° C | 81% | 1021.9 hPa | 0 mm | - | - | - |
| 1777162057 | 7.78° C | 74% | 1021.5 hPa | 0 mm | - | - | - |
| 1777160257 | 7.78° C | 69% | 1021.4 hPa | 0 mm | - | - | - |
| 1777158457 | 8.33° C | 68% | 1021.4 hPa | 0 mm | - | - | - |
| 1777156339 | 8.89° C | 58% | 1021.1 hPa | 0 mm | - | - | - |
| 1777153505 | 9.44° C | 45% | 1020.7 hPa | 0 mm | - | - | - |
| 1777152738 | 10° C | 47% | 1020.6 hPa | 0 mm | - | - | - |
| 1777148106 | 10.56° C | 44% | 1020 hPa | 0 mm | - | - | - |
| 1777146303 | 12.22° C | 42% | 1019.8 hPa | 0 mm | - | - | - |
* Rain latest hour (hover to see other rain measurements)
** Current wind speed in m/s (hover to see current wind gust speed)